Time;durP1;ratioP1;P1;durP2;ratioP2;P2;SDS_P1;SDS_P2;PMS_P1;PMS_P2;Temp;Humidity;BMP_temperature;BMP_pressure;BME280_temperature;BME280_humidity;BME280_pressure;Samples;Min_cycle;Max_cycle;Signal;HPM_P1;HPM_P2
2022/03/21 00:01:24;;;;;;;18.63;15.17;;;;;;;6.82;81.88;101587.09;5023895;28;20188;-58
2022/03/21 00:03:50;;;;;;;16.50;14.63;;;;;;;6.83;81.30;101588.84;5024547;28;20235;-58
2022/03/21 00:06:15;;;;;;;17.27;14.53;;;;;;;6.84;81.26;101593.16;5027636;28;20229;-58
2022/03/21 00:08:43;;;;;;;16.93;15.07;;;;;;;6.82;81.35;101593.09;5016735;28;20228;-58
2022/03/21 00:11:09;;;;;;;17.60;15.70;;;;;;;6.78;81.67;101593.00;5018035;28;20193;-58
2022/03/21 00:13:35;;;;;;;21.37;18.20;;;;;;;6.74;82.08;101598.88;5026538;28;20680;-58
2022/03/21 00:16:01;;;;;;;19.83;16.87;;;;;;;6.68;82.23;101591.84;5021592;28;20263;-58
2022/03/21 00:18:27;;;;;;;18.03;16.13;;;;;;;6.64;82.21;101592.63;5024204;28;21012;-58
2022/03/21 00:20:54;;;;;;;17.20;15.33;;;;;;;6.58;82.30;101595.88;5026875;28;20187;-58
2022/03/21 00:23:20;;;;;;;16.60;14.90;;;;;;;6.54;82.19;101586.34;5026538;28;20220;-58
2022/03/21 00:25:46;;;;;;;18.83;15.83;;;;;;;6.51;82.13;101588.81;5029005;28;20324;-59
2022/03/21 00:28:12;;;;;;;21.33;18.70;;;;;;;6.45;82.24;101586.94;5024872;28;20556;-59
2022/03/21 00:30:40;;;;;;;22.77;19.33;;;;;;;6.42;82.41;101589.41;5034120;28;20180;-59
2022/03/21 00:33:07;;;;;;;23.20;20.10;;;;;;;6.38;82.55;101596.19;5023435;28;20232;-59
2022/03/21 00:35:32;;;;;;;24.90;20.60;;;;;;;6.34;82.90;101589.19;5017805;28;20181;-59
2022/03/21 00:37:58;;;;;;;33.23;25.33;;;;;;;6.30;83.25;101589.06;5023576;28;20208;-59
2022/03/21 00:40:24;;;;;;;24.87;22.07;;;;;;;6.28;84.90;101586.44;5021224;28;20919;-59
2022/03/21 00:42:50;;;;;;;24.37;20.27;;;;;;;6.28;87.05;101590.72;5029437;28;20191;-58
2022/03/21 00:45:18;;;;;;;21.93;18.63;;;;;;;6.23;86.77;101594.00;5027487;28;20230;-59
2022/03/21 00:47:45;;;;;;;19.77;17.67;;;;;;;6.20;86.55;101587.91;5020900;28;20684;-58
2022/03/21 00:50:13;;;;;;;20.70;17.93;;;;;;;6.17;86.61;101590.38;5026867;28;20197;-58
2022/03/21 00:52:47;;;;;;;21.57;18.63;;;;;;;6.14;87.40;101591.19;5034059;28;20183;-59
2022/03/21 00:55:14;;;;;;;21.87;19.20;;;;;;;6.09;88.19;101588.47;5027838;28;20199;-58
2022/03/21 00:57:42;;;;;;;20.97;18.07;;;;;;;6.05;88.89;101585.78;5023469;28;20211;-59
2022/03/21 01:00:29;;;;;;;21.87;18.60;;;;;;;5.96;89.32;101588.91;5024977;28;20188;-59
2022/03/21 01:02:56;;;;;;;20.17;17.80;;;;;;;5.89;89.80;101592.09;5017430;28;20248;-61
2022/03/21 01:05:25;;;;;;;21.70;17.27;;;;;;;5.81;90.06;101581.56;5021271;28;20216;-59
2022/03/21 01:07:51;;;;;;;20.43;16.97;;;;;;;5.77;91.00;101582.28;5022522;28;20664;-58
2022/03/21 01:10:18;;;;;;;18.33;16.43;;;;;;;5.70;91.00;101588.06;5019197;28;20224;-58
2022/03/21 01:12:45;;;;;;;18.87;16.33;;;;;;;5.62;90.83;101592.94;5021084;28;20290;-58
2022/03/21 01:15:14;;;;;;;20.07;17.50;;;;;;;5.51;90.80;101587.47;5018353;28;20680;-58
2022/03/21 01:17:42;;;;;;;20.10;17.30;;;;;;;5.41;90.43;101590.56;5020597;28;20194;-58
2022/03/21 01:20:08;;;;;;;18.40;16.43;;;;;;;5.31;90.35;101599.63;5018376;28;20212;-58
2022/03/21 01:22:33;;;;;;;17.37;15.63;;;;;;;5.24;89.85;101606.25;5027206;28;20207;-58
2022/03/21 01:24:59;;;;;;;18.27;16.47;;;;;;;5.23;89.60;101596.81;5029647;28;20209;-58
2022/03/21 01:27:24;;;;;;;20.00;17.10;;;;;;;5.23;89.73;101607.06;5015839;28;20254;-58
2022/03/21 01:29:49;;;;;;;19.27;17.27;;;;;;;5.26;89.47;101608.88;5030800;28;20253;-58
2022/03/21 01:32:15;;;;;;;19.07;16.40;;;;;;;5.23;89.25;101604.50;5020759;28;20193;-59
2022/03/21 01:34:41;;;;;;;18.27;15.07;;;;;;;5.20;89.16;101606.97;5023864;28;20196;-58
2022/03/21 01:37:06;;;;;;;17.97;16.07;;;;;;;5.17;89.38;101610.31;5015944;28;20202;-59
2022/03/21 01:39:32;;;;;;;18.43;16.03;;;;;;;5.13;89.78;101610.16;5029221;28;20253;-60
2022/03/21 01:41:57;;;;;;;17.27;15.37;;;;;;;5.07;90.17;101602.22;5025884;28;20190;-60
2022/03/21 01:44:23;;;;;;;18.63;15.97;;;;;;;5.04;90.46;101610.72;5024177;28;20275;-58
2022/03/21 01:46:48;;;;;;;19.40;16.03;;;;;;;5.00;90.71;101614.84;5023125;28;20241;-60
2022/03/21 01:49:14;;;;;;;16.90;15.03;;;;;;;4.95;90.75;101618.94;5029299;28;21069;-60
2022/03/21 01:51:43;;;;;;;17.33;15.00;;;;;;;4.92;91.19;101623.06;5023727;28;20235;-60
2022/03/21 01:56:55;;;;;;;17.60;15.70;;;;;;;4.81;92.71;101626.13;5029757;28;20194;-60
2022/03/21 01:59:21;;;;;;;16.80;15.07;;;;;;;4.72;92.93;101618.97;5025872;28;20587;-58
2022/03/21 02:01:47;;;;;;;16.27;14.57;;;;;;;4.69;93.37;101623.13;5029890;28;20230;-60
2022/03/21 02:04:13;;;;;;;15.50;13.90;;;;;;;4.65;93.80;101621.25;5024923;28;20179;-58
2022/03/21 02:06:39;;;;;;;16.23;14.47;;;;;;;4.57;93.27;101619.31;5020533;28;20861;-58
2022/03/21 02:09:09;;;;;;;15.20;13.60;;;;;;;4.51;92.96;101618.19;5025904;28;20294;-58
2022/03/21 02:11:35;;;;;;;15.80;14.10;;;;;;;4.45;92.31;101612.84;5026274;28;20179;-60
2022/03/21 02:14:03;;;;;;;15.23;13.63;;;;;;;4.42;92.55;101609.34;5025509;28;20192;-58
2022/03/21 02:16:30;;;;;;;16.33;14.57;;;;;;;4.38;92.80;101619.41;5024643;28;20215;-59
2022/03/21 02:19:00;;;;;;;17.03;15.33;;;;;;;4.33;92.91;101618.34;5023836;28;20206;-58
2022/03/21 02:22:02;;;;;;;17.00;15.20;;;;;;;4.27;93.21;101617.34;5022528;28;20594;-58
2022/03/21 02:25:15;;;;;;;16.47;14.40;;;;;;;4.23;93.87;101622.28;5017498;28;20221;-61
2022/03/21 02:27:41;;;;;;;17.07;15.07;;;;;;;4.20;94.09;101620.47;4993686;28;20262;-58
2022/03/21 02:30:07;;;;;;;17.93;15.50;;;;;;;4.22;94.72;101615.41;5022744;28;20215;-58
2022/03/21 02:32:32;;;;;;;17.07;15.27;;;;;;;4.20;95.07;101622.16;5022995;28;20339;-60
2022/03/21 02:34:58;;;;;;;19.73;15.60;;;;;;;4.18;95.71;101627.19;5029357;28;20195;-58
2022/03/21 02:37:25;;;;;;;18.57;16.67;;;;;;;4.16;96.90;101633.09;5026256;28;20183;-59
2022/03/21 02:39:52;;;;;;;18.10;15.73;;;;;;;4.11;97.65;101628.66;5023512;28;20333;-58
2022/03/21 02:42:17;;;;;;;17.07;15.27;;;;;;;4.04;97.74;101631.81;5023848;28;20262;-59
2022/03/21 02:44:43;;;;;;;16.63;14.50;;;;;;;3.99;97.89;101628.19;5020148;28;20449;-59
2022/03/21 02:47:09;;;;;;;16.73;14.43;;;;;;;3.94;98.00;101624.56;5025554;28;20219;-60
2022/03/21 02:49:35;;;;;;;16.70;14.60;;;;;;;3.88;98.41;101626.88;5025332;28;20361;-58
2022/03/21 02:52:04;;;;;;;16.50;14.57;;;;;;;3.84;98.61;101627.56;5026644;28;20183;-58
2022/03/21 02:54:31;;;;;;;17.47;14.50;;;;;;;3.81;98.94;101631.75;5028403;28;20195;-58
2022/03/21 02:56:57;;;;;;;16.20;14.10;;;;;;;3.81;99.13;101630.88;5024435;28;20211;-58
2022/03/21 02:59:22;;;;;;;17.70;15.70;;;;;;;3.83;99.18;101631.81;5019832;28;20766;-58
2022/03/21 03:01:53;;;;;;;18.17;16.17;;;;;;;3.84;99.75;101633.56;5021174;28;20704;-58
2022/03/21 03:04:28;;;;;;;17.13;15.13;;;;;;;3.86;99.90;101642.16;5024831;28;20187;-59
2022/03/21 03:06:53;;;;;;;17.23;15.20;;;;;;;3.89;100.00;101644.88;5022085;28;20745;-59
2022/03/21 03:09:19;;;;;;;16.20;14.57;;;;;;;3.92;100.00;101644.13;5021974;28;20234;-58
2022/03/21 03:11:44;;;;;;;19.47;15.37;;;;;;;3.93;100.00;101641.63;5019553;28;20223;-61
2022/03/21 03:14:10;;;;;;;15.47;13.87;;;;;;;3.96;100.00;101643.41;5024450;28;20272;-58
2022/03/21 03:16:36;;;;;;;17.33;15.53;;;;;;;3.97;100.00;101640.03;5022384;28;20539;-60
2022/03/21 03:19:01;;;;;;;16.53;14.77;;;;;;;3.99;100.00;101643.53;5019512;28;20631;-58
2022/03/21 03:21:31;;;;;;;15.90;14.20;;;;;;;3.98;100.00;101634.13;5021329;28;20692;-59
2022/03/21 03:23:59;;;;;;;16.80;14.87;;;;;;;3.98;100.00;101644.34;5024462;28;20196;-59
2022/03/21 03:26:24;;;;;;;17.13;15.33;;;;;;;3.98;100.00;101639.25;5019839;28;20820;-59
2022/03/21 03:28:49;;;;;;;18.00;16.10;;;;;;;3.96;100.00;101640.84;5020523;28;20208;-58
2022/03/21 03:31:17;;;;;;;17.00;15.37;;;;;;;3.94;100.00;101645.03;5021873;28;20188;-61
2022/03/21 03:33:45;;;;;;;18.27;16.03;;;;;;;3.91;100.00;101643.25;5023625;28;20188;-59
2022/03/21 03:36:11;;;;;;;17.50;15.70;;;;;;;3.90;100.00;101648.31;5026047;28;20270;-59
2022/03/21 03:38:36;;;;;;;18.20;16.03;;;;;;;3.90;100.00;101650.88;5022015;28;20285;-58
2022/03/21 03:41:02;;;;;;;16.40;14.73;;;;;;;3.89;100.00;101647.41;5027025;28;20710;-59
2022/03/21 03:43:27;;;;;;;17.57;15.70;;;;;;;3.89;100.00;101644.00;5017475;28;20192;-59
2022/03/21 03:45:53;;;;;;;17.07;15.37;;;;;;;3.88;100.00;101639.69;5026783;28;20213;-59
2022/03/21 03:48:20;;;;;;;17.43;15.63;;;;;;;3.88;100.00;101642.25;5025051;28;20235;-59
2022/03/21 03:50:45;;;;;;;17.63;15.77;;;;;;;3.86;100.00;101652.41;5022961;28;20189;-58
2022/03/21 03:53:11;;;;;;;17.50;15.17;;;;;;;3.84;100.00;101655.72;5026356;28;20199;-59
2022/03/21 03:55:37;;;;;;;16.67;14.87;;;;;;;3.79;100.00;101666.66;5026292;28;20183;-59
2022/03/21 03:58:02;;;;;;;17.47;15.57;;;;;;;3.79;100.00;101676.03;5031090;28;20253;-59
2022/03/21 04:00:28;;;;;;;16.67;14.97;;;;;;;3.78;100.00;101677.72;5029745;28;20567;-59
2022/03/21 04:05:37;;;;;;;17.50;15.53;;;;;;;3.84;100.00;101677.13;5024194;28;20214;-59
2022/03/21 04:08:03;;;;;;;16.13;14.43;;;;;;;3.85;100.00;101673.75;5026520;28;20203;-58
2022/03/21 04:10:28;;;;;;;18.97;15.67;;;;;;;3.85;100.00;101673.75;5020427;28;20703;-58
2022/03/21 04:12:54;;;;;;;17.93;15.77;;;;;;;3.83;100.00;101680.50;5028502;28;21387;-58
2022/03/21 04:15:21;;;;;;;17.20;15.37;;;;;;;3.83;100.00;101677.94;5025607;28;20211;-59
2022/03/21 04:17:47;;;;;;;19.47;16.10;;;;;;;3.83;100.00;101682.16;5020132;28;20778;-59
2022/03/21 04:20:12;;;;;;;18.70;16.37;;;;;;;3.85;100.00;101683.09;5021162;28;20179;-59
2022/03/21 04:22:38;;;;;;;16.83;15.13;;;;;;;3.87;100.00;101684.03;5026370;28;20610;-59
2022/03/21 04:25:06;;;;;;;17.67;15.77;;;;;;;3.90;100.00;101686.72;5025087;28;20254;-59
2022/03/21 04:27:32;;;;;;;16.83;15.10;;;;;;;3.95;100.00;101683.53;5025471;28;20186;-59
2022/03/21 04:29:57;;;;;;;16.53;14.80;;;;;;;3.99;100.00;101689.66;5028143;28;20269;-59
2022/03/21 04:32:23;;;;;;;16.50;14.57;;;;;;;4.00;100.00;101686.28;5032365;28;20638;-58
2022/03/21 04:34:48;;;;;;;17.30;15.30;;;;;;;4.04;100.00;101687.28;5029088;28;20190;-58
2022/03/21 04:37:13;;;;;;;16.43;14.73;;;;;;;4.06;100.00;101678.88;5026658;28;20195;-58
2022/03/21 04:39:42;;;;;;;16.53;14.83;;;;;;;4.11;100.00;101679.03;5027780;28;20233;-58
2022/03/21 04:42:07;;;;;;;15.53;13.83;;;;;;;4.18;100.00;101688.69;5022352;28;20235;-59
2022/03/21 04:44:33;;;;;;;17.13;15.37;;;;;;;4.25;100.00;101687.25;5032575;28;20187;-58
2022/03/21 04:46:58;;;;;;;15.70;14.10;;;;;;;4.33;100.00;101690.13;5025038;28;20187;-58
2022/03/21 04:49:23;;;;;;;15.47;13.83;;;;;;;4.40;100.00;101693.00;5026993;28;20221;-59
2022/03/21 04:51:49;;;;;;;15.57;13.97;;;;;;;4.49;100.00;101691.63;5031094;28;20285;-59
2022/03/21 04:54:15;;;;;;;14.30;12.80;;;;;;;4.54;100.00;101698.66;5029010;28;20195;-59
2022/03/21 04:56:40;;;;;;;15.27;13.77;;;;;;;4.63;100.00;101699.81;5025391;28;20179;-59
2022/03/21 04:59:07;;;;;;;15.53;13.93;;;;;;;4.67;100.00;101697.44;5022985;28;20549;-59
2022/03/21 05:01:33;;;;;;;16.97;15.17;;;;;;;4.73;100.00;101697.66;5017314;28;20698;-59
2022/03/21 05:03:59;;;;;;;15.67;13.97;;;;;;;4.77;100.00;101695.22;5018476;28;20262;-59
2022/03/21 05:06:25;;;;;;;15.53;13.93;;;;;;;4.81;100.00;101699.66;5021884;28;20262;-58
2022/03/21 05:08:51;;;;;;;15.93;14.33;;;;;;;4.85;100.00;101699.81;5029115;28;20214;-59
2022/03/21 05:11:16;;;;;;;16.73;14.87;;;;;;;4.87;100.00;101700.75;5028312;28;20683;-59
2022/03/21 05:13:42;;;;;;;16.57;14.77;;;;;;;4.91;100.00;101706.00;5029369;28;20191;-59
2022/03/21 05:16:07;;;;;;;17.17;15.37;;;;;;;4.91;100.00;101708.59;5028349;28;20179;-59
2022/03/21 05:18:35;;;;;;;18.70;16.43;;;;;;;4.93;100.00;101712.94;5025454;28;20206;-59
2022/03/21 05:21:04;;;;;;;17.27;15.40;;;;;;;4.94;100.00;101708.66;5031500;28;20196;-59
2022/03/21 05:31:43;;;;;;;19.57;17.03;;;;;;;4.83;100.00;101714.28;5023517;28;20197;-59
2022/03/21 05:36:53;;;;;;;20.23;18.07;;;;;;;4.76;100.00;101714.88;5016282;28;20867;-59
2022/03/21 05:39:19;;;;;;;19.63;17.57;;;;;;;4.75;100.00;101719.94;5031523;28;20231;-59
2022/03/21 05:41:44;;;;;;;19.97;16.83;;;;;;;4.75;100.00;101728.53;5023222;28;20671;-59
2022/03/21 05:44:11;;;;;;;20.37;18.27;;;;;;;4.75;100.00;101731.09;5020699;28;20223;-62
2022/03/21 05:46:36;;;;;;;19.80;17.70;;;;;;;4.77;100.00;101732.00;5018865;28;20208;-59
2022/03/21 05:49:02;;;;;;;18.77;16.77;;;;;;;4.84;100.00;101726.28;5024814;28;20210;-60
2022/03/21 05:51:32;;;;;;;17.80;15.77;;;;;;;4.96;100.00;101737.81;5031126;28;20195;-59
2022/03/21 05:53:59;;;;;;;18.07;16.27;;;;;;;5.03;100.00;101738.09;5020747;28;20197;-58
2022/03/21 05:56:27;;;;;;;18.60;16.70;;;;;;;5.13;100.00;101746.16;5020806;28;20233;-61
2022/03/21 05:58:53;;;;;;;19.40;17.33;;;;;;;5.19;100.00;101746.38;5026258;28;20631;-58
2022/03/21 06:01:22;;;;;;;21.47;15.83;;;;;;;5.27;100.00;101749.22;5034714;28;20537;-59
2022/03/21 06:03:53;;;;;;;18.27;16.43;;;;;;;5.37;100.00;101748.72;5028259;28;20294;-60
2022/03/21 06:06:19;;;;;;;20.07;17.07;;;;;;;5.46;100.00;101748.19;5024374;28;20207;-59
2022/03/21 06:08:45;;;;;;;18.27;16.33;;;;;;;5.56;100.00;101760.56;5020357;28;20206;-58
2022/03/21 06:11:12;;;;;;;19.27;15.87;;;;;;;5.69;99.89;101751.56;5021238;28;20183;-59
2022/03/21 06:13:42;;;;;;;17.97;16.13;;;;;;;5.89;99.57;101759.09;5022136;28;20183;-60
2022/03/21 06:16:08;;;;;;;19.97;15.67;;;;;;;6.13;98.96;101755.63;5029073;28;20181;-59
2022/03/21 06:18:35;;;;;;;16.13;14.43;;;;;;;6.34;98.18;101761.47;5024185;28;20222;-59
2022/03/21 06:21:02;;;;;;;18.57;14.87;;;;;;;6.50;97.37;101772.25;5025709;28;20599;-60
2022/03/21 06:23:30;;;;;;;16.83;14.80;;;;;;;6.65;96.78;101777.03;5022334;28;20194;-60
2022/03/21 06:25:58;;;;;;;22.03;16.27;;;;;;;6.78;96.16;101771.41;5024226;28;20633;-60
2022/03/21 06:28:25;;;;;;;19.70;15.23;;;;;;;6.95;95.34;101779.63;5030384;28;20600;-59
2022/03/21 06:30:51;;;;;;;17.73;15.83;;;;;;;7.12;94.73;101781.84;5022811;28;20192;-60
2022/03/21 06:33:18;;;;;;;16.73;14.70;;;;;;;7.26;93.90;101780.53;5022686;28;20222;-60
2022/03/21 06:35:44;;;;;;;17.53;15.70;;;;;;;7.36;93.50;101785.94;5021273;28;20280;-60
2022/03/21 06:38:10;;;;;;;16.67;14.97;;;;;;;7.44;93.18;101787.06;5035971;28;20322;-59
2022/03/21 06:40:37;;;;;;;16.77;14.80;;;;;;;7.60;92.54;101796.94;5023648;28;20645;-60
2022/03/21 06:43:02;;;;;;;16.43;14.73;;;;;;;7.85;91.57;101787.31;5035550;28;20192;-60
2022/03/21 06:45:28;;;;;;;16.40;14.67;;;;;;;8.02;91.03;101790.31;5023094;28;20272;-60
2022/03/21 06:47:54;;;;;;;16.13;14.43;;;;;;;8.09;90.42;101788.78;5031476;28;20199;-60
2022/03/21 06:50:19;;;;;;;16.37;14.63;;;;;;;8.19;90.15;101790.75;5025507;28;20197;-60
2022/03/21 06:52:45;;;;;;;18.43;15.70;;;;;;;8.30;89.55;101803.03;5033047;28;20192;-60
2022/03/21 06:55:12;;;;;;;15.97;14.47;;;;;;;8.36;89.58;101801.47;5024115;28;20671;-59
2022/03/21 06:57:38;;;;;;;17.83;15.80;;;;;;;8.39;88.78;101809.31;5024192;28;20646;-59
2022/03/21 07:00:05;;;;;;;17.13;15.33;;;;;;;8.43;88.71;101814.53;5024327;28;20189;-60
2022/03/21 07:02:31;;;;;;;16.80;15.20;;;;;;;8.45;88.56;101813.72;5033850;28;20188;-61
2022/03/21 07:04:57;;;;;;;20.37;17.70;;;;;;;8.48;88.25;101818.13;5024077;28;20218;-59
2022/03/21 07:07:23;;;;;;;19.33;17.13;;;;;;;8.51;88.14;101815.63;5026925;28;20579;-59
2022/03/21 07:09:49;;;;;;;18.13;16.33;;;;;;;8.67;87.54;101822.03;5026559;28;20209;-58
2022/03/21 07:12:14;;;;;;;19.43;17.53;;;;;;;8.80;87.28;101815.44;5041817;28;20175;-59
2022/03/21 07:14:40;;;;;;;18.30;16.53;;;;;;;8.90;86.87;101825.16;5025170;28;20255;-59
2022/03/21 07:17:05;;;;;;;19.40;17.40;;;;;;;9.00;86.31;101816.75;5034097;28;20180;-59
2022/03/21 07:19:30;;;;;;;18.33;16.43;;;;;;;9.06;86.08;101815.16;5027661;28;20206;-59
2022/03/21 07:21:56;;;;;;;20.03;17.93;;;;;;;9.08;85.53;101818.63;5022921;28;20196;-59
2022/03/21 07:24:21;;;;;;;20.17;17.80;;;;;;;9.08;85.06;101829.84;5023544;28;20184;-59
2022/03/21 07:26:46;;;;;;;19.30;17.40;;;;;;;9.05;84.63;101822.03;5024271;28;20952;-59
2022/03/21 07:29:12;;;;;;;18.37;16.57;;;;;;;9.08;84.61;101829.84;5021651;28;20195;-59
2022/03/21 07:31:38;;;;;;;18.50;16.70;;;;;;;9.11;84.42;101829.03;5030139;28;20549;-59
2022/03/21 07:34:04;;;;;;;18.47;16.67;;;;;;;9.15;84.01;101825.69;5021197;28;20186;-60
2022/03/21 07:36:30;;;;;;;17.67;15.93;;;;;;;9.19;83.79;101831.78;5026606;28;20980;-59
2022/03/21 07:38:58;;;;;;;18.20;16.40;;;;;;;9.19;83.31;101829.19;5023377;28;20200;-59
2022/03/21 07:41:27;;;;;;;18.33;16.47;;;;;;;9.13;82.14;101830.81;5023491;28;20270;-60
2022/03/21 07:43:54;;;;;;;19.13;17.10;;;;;;;9.12;82.04;101834.25;5023509;28;20176;-60
2022/03/21 07:49:03;;;;;;;18.77;16.67;;;;;;;9.25;81.69;101845.69;5018922;28;20230;-60
2022/03/21 07:51:29;;;;;;;18.93;16.33;;;;;;;9.15;80.16;101836.00;5021346;28;20188;-60
2022/03/21 07:53:54;;;;;;;18.60;16.50;;;;;;;9.20;80.88;101842.16;5022556;28;20180;-60
2022/03/21 07:56:19;;;;;;;16.40;14.70;;;;;;;9.26;80.95;101847.44;5023135;28;20192;-60
2022/03/21 07:58:45;;;;;;;18.57;16.50;;;;;;;9.32;80.45;101836.38;5026866;28;20203;-60
2022/03/21 08:01:10;;;;;;;17.80;15.90;;;;;;;9.37;80.26;101844.25;5026176;28;20182;-61
2022/03/21 08:03:36;;;;;;;15.80;14.17;;;;;;;9.40;80.03;101836.53;5028812;28;20652;-60
2022/03/21 08:06:02;;;;;;;16.63;15.03;;;;;;;9.45;79.22;101840.94;5020177;28;20204;-60
2022/03/21 08:08:28;;;;;;;17.07;15.27;;;;;;;9.50;79.34;101845.34;5022380;28;20215;-61
2022/03/21 08:10:54;;;;;;;17.17;15.57;;;;;;;9.57;78.91;101848.09;5022475;28;20218;-61
2022/03/21 08:13:19;;;;;;;15.67;14.17;;;;;;;9.65;78.58;101844.81;5021051;28;20187;-61
2022/03/21 08:15:45;;;;;;;15.87;14.17;;;;;;;9.71;78.62;101843.22;5025448;28;20195;-60
2022/03/21 08:18:12;;;;;;;16.67;14.93;;;;;;;9.80;78.47;101842.53;5023870;28;20210;-60
2022/03/21 08:20:39;;;;;;;15.90;14.20;;;;;;;9.94;78.62;101850.53;5018468;28;20228;-59
2022/03/21 08:23:12;;;;;;;15.60;14.00;;;;;;;10.06;78.47;101842.97;5023856;28;20184;-60
2022/03/21 08:25:45;;;;;;;15.20;13.70;;;;;;;10.19;78.61;101844.09;5029679;28;20287;-60
2022/03/21 08:28:11;;;;;;;16.77;14.07;;;;;;;10.34;78.61;101845.19;5021788;28;20203;-59
2022/03/21 08:30:38;;;;;;;14.33;12.93;;;;;;;10.46;78.36;101847.16;5021784;28;20667;-59
2022/03/21 08:33:06;;;;;;;16.87;13.83;;;;;;;10.56;78.14;101853.38;5031332;28;20676;-59
2022/03/21 08:35:32;;;;;;;15.13;13.57;;;;;;;10.62;78.15;101856.03;5019037;28;20184;-59
2022/03/21 08:37:59;;;;;;;15.20;13.60;;;;;;;10.70;77.76;101854.44;5021455;28;20239;-59
2022/03/21 08:40:24;;;;;;;16.33;14.67;;;;;;;10.78;77.50;101852.84;5021259;28;20867;-61
2022/03/21 08:42:50;;;;;;;14.43;12.97;;;;;;;10.88;77.53;101859.03;5026882;28;20203;-59
2022/03/21 08:45:15;;;;;;;15.23;13.83;;;;;;;10.96;77.38;101847.09;5025893;28;20237;-60
2022/03/21 08:47:42;;;;;;;15.57;13.97;;;;;;;11.03;76.79;101852.34;5030107;28;20278;-60
2022/03/21 08:50:08;;;;;;;18.13;14.97;;;;;;;11.08;76.46;101850.69;5020581;28;20279;-60
2022/03/21 08:52:34;;;;;;;16.83;15.03;;;;;;;11.12;76.37;101857.63;5021159;28;20268;-59
2022/03/21 08:55:00;;;;;;;18.60;16.33;;;;;;;11.11;75.54;101858.50;5016587;28;20708;-59
2022/03/21 08:57:25;;;;;;;19.00;17.10;;;;;;;11.06;74.51;101850.66;5019806;28;20657;-58
2022/03/21 08:59:52;;;;;;;16.43;14.73;;;;;;;11.11;74.25;101853.34;5017428;28;20621;-58
2022/03/21 09:02:18;;;;;;;17.00;15.20;;;;;;;11.18;74.32;101855.16;5021074;28;20187;-58
2022/03/21 09:04:45;;;;;;;16.50;14.10;;;;;;;11.26;74.35;101853.53;5024220;28;20188;-58
2022/03/21 09:07:11;;;;;;;16.37;14.67;;;;;;;11.38;74.07;101849.38;5023938;28;20197;-60
2022/03/21 09:09:37;;;;;;;15.80;14.20;;;;;;;11.44;73.67;101847.72;5025252;28;20239;-60
2022/03/21 09:12:02;;;;;;;14.97;13.43;;;;;;;11.56;73.59;101847.00;5024494;28;20213;-60
2022/03/21 09:14:28;;;;;;;14.50;12.80;;;;;;;11.68;73.66;101854.03;5026968;28;20184;-61
2022/03/21 09:16:53;;;;;;;15.03;13.40;;;;;;;11.84;73.47;101854.22;5022172;28;20187;-60
2022/03/21 09:19:23;;;;;;;16.60;14.67;;;;;;;11.88;72.78;101845.63;5024410;28;20565;-60
2022/03/21 09:21:49;;;;;;;14.77;13.37;;;;;;;11.93;72.24;101849.13;5021337;28;20184;-60
2022/03/21 09:24:15;;;;;;;15.80;13.87;;;;;;;12.03;71.88;101837.13;5020838;28;20217;-60
2022/03/21 09:26:40;;;;;;;14.17;12.77;;;;;;;12.11;71.65;101848.47;5017715;28;20208;-59
2022/03/21 09:29:05;;;;;;;14.50;13.10;;;;;;;12.13;71.24;101844.19;5025501;28;20722;-59
2022/03/21 09:31:41;;;;;;;13.70;12.30;;;;;;;12.21;71.15;101839.06;5027161;28;20191;-60
2022/03/21 09:34:10;;;;;;;14.07;12.77;;;;;;;12.26;70.24;101841.69;5020903;28;20180;-59
2022/03/21 09:36:36;;;;;;;14.90;13.43;;;;;;;12.35;70.07;101837.47;5029798;28;20183;-60
2022/03/21 09:39:03;;;;;;;15.47;13.93;;;;;;;12.42;69.75;101835.78;5020931;28;20213;-60
2022/03/21 09:41:30;;;;;;;15.20;13.67;;;;;;;12.50;69.62;101841.03;5026150;28;20189;-59
2022/03/21 09:43:58;;;;;;;15.00;13.60;;;;;;;12.64;69.53;101835.94;5026424;28;20215;-59
2022/03/21 09:46:23;;;;;;;15.03;13.43;;;;;;;12.71;69.28;101829.94;5028758;28;20205;-59
2022/03/21 09:48:51;;;;;;;15.47;13.90;;;;;;;12.81;69.42;101823.94;5024157;28;20264;-59
2022/03/21 09:51:22;;;;;;;17.90;15.23;;;;;;;12.89;69.22;101828.31;5022736;28;20264;-59
2022/03/21 09:53:48;;;;;;;16.87;14.00;;;;;;;12.98;69.15;101832.72;5017941;28;20186;-59
2022/03/21 09:56:15;;;;;;;17.03;14.33;;;;;;;13.06;68.94;101821.50;5024942;28;20182;-59
2022/03/21 09:58:40;;;;;;;14.77;13.30;;;;;;;13.14;69.37;101821.53;5017008;28;20206;-59
2022/03/21 10:01:06;;;;;;;15.57;13.70;;;;;;;13.24;69.79;101812.91;5026947;28;20217;-59
2022/03/21 10:03:33;;;;;;;15.53;13.93;;;;;;;13.34;69.93;101810.34;5024459;28;20250;-57
2022/03/21 10:06:00;;;;;;;18.13;15.50;;;;;;;13.40;68.96;101810.41;5029248;28;20208;-58
2022/03/21 10:08:28;;;;;;;16.23;14.10;;;;;;;13.43;69.11;101801.72;5027102;28;20207;-57
2022/03/21 10:10:57;;;;;;;15.67;14.07;;;;;;;13.52;69.41;101802.63;5034755;28;20182;-57
2022/03/21 10:13:30;;;;;;;16.80;15.13;;;;;;;13.62;68.84;101800.06;5038204;28;20191;-57
2022/03/21 10:16:15;;;;;;;17.60;15.73;;;;;;;13.69;68.05;101800.06;5041982;28;20177;-57
2022/03/21 10:19:00;;;;;;;17.87;15.50;;;;;;;13.71;68.04;101806.16;5031205;28;20214;-56
2022/03/21 10:21:28;;;;;;;16.10;14.40;;;;;;;13.77;68.37;101801.84;5023176;28;20195;-59
2022/03/21 10:24:02;;;;;;;14.97;13.43;;;;;;;13.88;68.51;101794.91;5029570;28;20188;-57
2022/03/21 10:26:32;;;;;;;14.10;12.63;;;;;;;13.97;68.57;101794.94;5022066;28;20231;-58
2022/03/21 10:29:00;;;;;;;19.23;16.93;;;;;;;14.06;67.11;101788.88;5033537;28;20207;-60
2022/03/21 10:31:35;;;;;;;17.57;15.77;;;;;;;13.96;66.66;101795.81;5026665;28;20190;-58
2022/03/21 10:34:03;;;;;;;18.43;16.63;;;;;;;13.96;66.44;101795.81;5021609;28;20248;-58
2022/03/21 10:36:28;;;;;;;20.43;16.30;;;;;;;14.08;65.50;101791.47;5024403;28;20246;-58
2022/03/21 10:39:11;;;;;;;17.37;15.63;;;;;;;14.04;65.04;101785.41;5029900;28;20210;-57
2022/03/21 10:41:39;;;;;;;17.60;15.33;;;;;;;14.17;65.22;101786.25;5018458;28;20287;-56
2022/03/21 10:44:06;;;;;;;19.37;16.13;;;;;;;14.28;65.33;101783.66;5026754;28;20217;-58
2022/03/21 10:46:32;;;;;;;20.30;17.10;;;;;;;14.22;63.97;101786.28;5027416;28;20263;-58
2022/03/21 10:49:03;;;;;;;18.23;16.33;;;;;;;14.37;64.19;101788.84;5025559;28;20223;-57
2022/03/21 10:51:46;;;;;;;17.60;15.70;;;;;;;14.40;64.21;101791.47;5030014;28;20533;-58
2022/03/21 10:54:37;;;;;;;20.30;16.33;;;;;;;14.47;63.92;101780.19;5028262;28;20211;-57
2022/03/21 10:57:04;;;;;;;16.43;14.83;;;;;;;14.56;63.63;101778.41;5030683;28;20196;-59
2022/03/21 10:59:31;;;;;;;17.10;15.30;;;;;;;14.71;64.59;101772.34;5030697;28;20900;-58
2022/03/21 11:02:14;;;;;;;17.50;15.60;;;;;;;14.82;64.04;101770.59;5020213;28;20186;-60
2022/03/21 11:04:45;;;;;;;17.73;15.50;;;;;;;14.95;63.81;101763.59;5026846;28;20206;-59
2022/03/21 11:07:12;;;;;;;16.23;14.57;;;;;;;15.02;63.74;101764.44;5026618;28;20321;-56
2022/03/21 11:09:41;;;;;;;15.07;13.57;;;;;;;15.11;64.07;101761.78;5026471;28;20210;-57
2022/03/21 11:12:09;;;;;;;15.87;14.33;;;;;;;15.21;64.23;101755.66;5025614;28;20187;-62
2022/03/21 11:14:44;;;;;;;15.97;14.23;;;;;;;15.38;62.94;101755.56;5027450;28;20216;-57
2022/03/21 11:17:09;;;;;;;18.00;16.10;;;;;;;15.53;62.69;101752.00;5026969;28;20178;-58
2022/03/21 11:19:35;;;;;;;16.20;14.33;;;;;;;15.53;62.28;101745.94;5025389;28;20979;-57
2022/03/21 11:22:00;;;;;;;17.77;15.77;;;;;;;15.63;62.14;101747.59;5024582;28;20672;-58
2022/03/21 11:24:28;;;;;;;16.40;14.80;;;;;;;15.67;61.64;101744.09;5024637;28;20196;-57
2022/03/21 11:27:20;;;;;;;19.17;17.00;;;;;;;15.69;61.02;101738.84;5027782;28;20206;-57
2022/03/21 11:30:01;;;;;;;18.60;16.63;;;;;;;15.64;61.09;101740.66;5012986;28;20570;-57
2022/03/21 11:32:36;;;;;;;27.53;16.00;;;;;;;15.73;60.64;101742.34;5033024;28;20176;-56